createdAt,value
2017-10-11T00:01:28.487Z,13.04
2017-10-11T00:04:25.273Z,13.04
2017-10-11T00:07:22.348Z,13.04
2017-10-11T00:10:19.087Z,13.04
2017-10-11T00:13:16.570Z,13.06
2017-10-11T00:16:13.690Z,13.10
2017-10-11T00:19:10.849Z,13.11
2017-10-11T00:21:36.657Z,13.11
2017-10-11T00:24:27.446Z,13.13
2017-10-11T00:27:24.710Z,13.12
2017-10-11T00:30:22.443Z,13.08
2017-10-11T00:33:20.422Z,13.10
2017-10-11T00:36:17.472Z,13.05
2017-10-11T00:39:14.597Z,13.01
2017-10-11T00:45:01.419Z,13.11
2017-10-11T00:47:51.281Z,13.13
2017-10-11T01:07:17.728Z,13.20
2017-10-11T01:10:07.098Z,13.23
2017-10-11T01:13:04.306Z,13.23
2017-10-11T01:16:02.193Z,13.30
2017-10-11T01:18:59.908Z,13.35
2017-10-11T01:21:57.389Z,13.35
2017-10-11T01:31:05.798Z,13.27
2017-10-11T01:33:55.752Z,13.32
2017-10-11T01:36:52.969Z,13.35
2017-10-11T01:39:50.663Z,13.37
2017-10-11T01:42:48.698Z,13.29
2017-10-11T01:45:45.756Z,13.25
2017-10-11T01:48:42.705Z,13.22
2017-10-11T01:54:30.318Z,13.27
2017-10-11T01:57:20.025Z,13.32
2017-10-11T02:00:17.760Z,13.30
2017-10-11T02:16:07.702Z,13.38
2017-10-11T02:35:50.825Z,13.34
2017-10-11T02:38:16.621Z,13.36
2017-10-11T02:57:52.412Z,13.18
2017-10-11T03:00:18.209Z,13.13
2017-10-11T03:19:54.181Z,13.04
2017-10-11T03:22:19.983Z,12.99
2017-10-11T03:41:54.974Z,12.92
2017-10-11T03:44:20.804Z,12.92
2017-10-11T03:47:10.005Z,12.88
2017-10-11T03:50:07.361Z,12.90
2017-10-11T04:09:20.814Z,12.74
2017-10-11T04:12:17.369Z,12.69
2017-10-11T04:15:14.946Z,12.69
2017-10-11T04:27:55.506Z,12.47
2017-10-11T04:47:26.458Z,12.01
2017-10-11T04:49:52.249Z,11.92
2017-10-11T04:52:40.976Z,11.89
2017-10-11T04:55:38.297Z,11.85
2017-10-11T05:14:43.278Z,12.01
2017-10-11T05:17:40.122Z,12.02
2017-10-11T05:20:36.733Z,12.08
2017-10-11T05:23:40.061Z,12.10
2017-10-11T05:26:36.609Z,12.12
2017-10-11T05:35:43.351Z,12.10
2017-10-11T05:38:32.690Z,12.13
2017-10-11T05:41:29.242Z,12.16
2017-10-11T05:57:16.645Z,12.33
2017-10-11T06:00:05.287Z,12.39
2017-10-11T06:19:12.883Z,12.74
2017-10-11T06:22:01.488Z,12.78
2017-10-11T06:41:09.378Z,12.88
2017-10-11T06:43:58.810Z,12.88
2017-10-11T06:46:56.273Z,12.90
2017-10-11T07:02:43.806Z,13.29
2017-10-11T07:05:33.211Z,13.38
2017-10-11T07:08:30.614Z,13.50
2017-10-11T07:11:28.042Z,14.48
2017-10-11T07:14:25.394Z,15.61
2017-10-11T07:17:21.998Z,15.91
2017-10-11T07:20:18.810Z,15.42
2017-10-11T07:23:15.558Z,15.47
2017-10-11T07:42:22.206Z,18.24
2017-10-11T07:45:18.741Z,18.93
2017-10-11T07:47:44.507Z,19.37
2017-10-11T07:50:33.839Z,19.57
2017-10-11T08:09:42.154Z,20.15
2017-10-11T08:32:03.348Z,16.25
2017-10-11T08:51:34.291Z,16.24
2017-10-11T09:10:40.867Z,16.24
2017-10-11T09:13:37.414Z,16.21
2017-10-11T09:16:03.202Z,16.20
2017-10-11T09:35:33.975Z,16.35
2017-10-11T09:37:59.728Z,16.50
2017-10-11T09:40:49.166Z,16.74
2017-10-11T09:43:45.694Z,16.78
2017-10-11T09:46:42.207Z,16.84
2017-10-11T09:49:38.835Z,16.95
2017-10-11T09:59:28.463Z,17.20
2017-10-11T10:02:18.174Z,17.35
2017-10-11T10:21:25.455Z,17.45
2017-10-11T10:40:56.634Z,17.41
2017-10-11T11:00:03.216Z,18.23
2017-10-11T11:05:49.131Z,17.95
2017-10-11T11:08:38.608Z,17.99
2017-10-11T11:11:36.113Z,18.15
2017-10-11T11:14:32.638Z,19.02
2017-10-11T11:27:16.600Z,21.07
2017-10-11T11:38:36.534Z,23.58
2017-10-11T11:41:02.278Z,22.94
2017-10-11T11:43:28.027Z,21.96
2017-10-11T11:45:53.782Z,21.31
2017-10-11T11:48:19.763Z,21.18
2017-10-11T11:50:45.507Z,21.20
2017-10-11T11:53:11.290Z,21.71
2017-10-11T11:55:37.046Z,21.61
2017-10-11T11:58:02.798Z,21.88
2017-10-11T12:00:31.107Z,21.69
2017-10-11T12:02:57.142Z,21.26
2017-10-11T12:05:22.898Z,20.93
2017-10-11T12:07:48.674Z,20.92
2017-10-11T12:10:14.426Z,21.08
2017-10-11T12:12:40.199Z,21.01
2017-10-11T12:15:05.967Z,21.29
2017-10-11T12:17:31.709Z,21.87
2017-10-11T12:19:57.468Z,22.18
2017-10-11T12:22:23.214Z,21.97
2017-10-11T12:24:49.822Z,21.39
2017-10-11T12:27:15.565Z,21.27
2017-10-11T12:29:41.330Z,21.03
2017-10-11T12:32:07.088Z,20.96
2017-10-11T12:34:32.850Z,20.97
2017-10-11T12:36:58.691Z,20.86
2017-10-11T12:39:25.514Z,20.96
2017-10-11T12:41:51.868Z,20.72
2017-10-11T12:44:17.994Z,20.75
2017-10-11T12:46:44.063Z,20.77
2017-10-11T12:49:10.128Z,20.85
2017-10-11T12:51:36.541Z,20.74
2017-10-11T12:54:02.566Z,20.84
2017-10-11T12:56:29.686Z,20.85
2017-10-11T12:58:56.077Z,20.96
2017-10-11T13:01:22.335Z,21.26
2017-10-11T13:03:48.566Z,21.79
2017-10-11T13:06:15.258Z,21.89
2017-10-11T13:08:41.794Z,21.35
2017-10-11T13:11:08.496Z,21.40
2017-10-11T13:13:35.706Z,21.44
2017-10-11T13:16:02.394Z,21.15
2017-10-11T13:18:28.718Z,21.29
2017-10-11T13:20:55.387Z,21.38
2017-10-11T13:23:21.246Z,21.15
2017-10-11T13:25:46.979Z,20.74
2017-10-11T13:28:12.758Z,20.40
2017-10-11T13:30:38.604Z,20.34
2017-10-11T13:33:04.535Z,20.47
2017-10-11T13:35:30.385Z,20.70
2017-10-11T13:37:56.238Z,20.74
2017-10-11T13:40:21.996Z,20.74
2017-10-11T13:42:47.876Z,20.79
2017-10-11T13:45:13.620Z,20.72
2017-10-11T13:47:39.378Z,20.67
2017-10-11T13:50:05.163Z,20.71
2017-10-11T13:52:30.932Z,20.70
2017-10-11T13:54:56.710Z,20.75
2017-10-11T13:57:22.467Z,20.78
2017-10-11T13:59:48.207Z,20.79
2017-10-11T14:02:13.984Z,20.59
2017-10-11T14:04:39.745Z,20.53
2017-10-11T14:07:05.582Z,20.63
2017-10-11T14:09:31.332Z,20.97
2017-10-11T14:11:57.146Z,21.38
2017-10-11T14:14:22.938Z,21.29
2017-10-11T14:16:48.679Z,20.99
2017-10-11T14:19:14.592Z,20.58
2017-10-11T14:21:40.434Z,20.37
2017-10-11T14:24:06.247Z,20.75
2017-10-11T14:26:32.040Z,21.45
2017-10-11T14:28:57.907Z,21.66
2017-10-11T14:31:23.646Z,21.49
2017-10-11T14:33:49.526Z,21.51
2017-10-11T14:36:15.279Z,21.35
2017-10-11T14:38:41.038Z,21.52
2017-10-11T14:41:06.834Z,21.48
2017-10-11T14:43:32.919Z,21.49
2017-10-11T14:45:59.091Z,21.49
2017-10-11T14:48:25.599Z,21.47
2017-10-11T14:53:17.990Z,21.68
2017-10-11T14:55:44.247Z,21.94
2017-10-11T14:58:09.994Z,21.97
2017-10-11T15:00:35.794Z,22.22
2017-10-11T15:03:01.611Z,22.01
2017-10-11T15:05:27.347Z,22.04
2017-10-11T15:07:53.115Z,22.00
2017-10-11T15:10:18.902Z,22.02
2017-10-11T15:12:44.638Z,22.11
2017-10-11T15:15:10.396Z,22.11
2017-10-11T15:17:36.710Z,22.30
2017-10-11T15:20:02.481Z,22.54
2017-10-11T15:22:28.315Z,22.84
2017-10-11T15:24:54.059Z,22.99
2017-10-11T15:27:19.822Z,22.90
2017-10-11T15:29:45.551Z,22.71
2017-10-11T15:32:11.300Z,22.78
2017-10-11T15:34:37.067Z,22.87
2017-10-11T15:37:26.086Z,22.95
2017-10-11T15:40:23.046Z,22.94
2017-10-11T15:56:11.405Z,23.37
2017-10-11T16:15:43.660Z,22.72
2017-10-11T16:18:09.435Z,22.75
2017-10-11T16:20:58.871Z,22.58
2017-10-11T16:23:55.766Z,22.19
2017-10-11T16:26:53.192Z,21.75
2017-10-11T16:39:47.627Z,20.21
2017-10-11T16:42:36.214Z,19.78
2017-10-11T17:01:44.262Z,18.05
2017-10-11T17:04:33.876Z,17.93
2017-10-11T17:23:44.039Z,16.63
2017-10-11T17:26:33.582Z,16.64
2017-10-11T17:29:30.775Z,16.56
2017-10-11T17:48:38.162Z,16.31
2017-10-11T18:07:46.161Z,15.60
2017-10-11T18:10:35.114Z,15.55
2017-10-11T18:29:43.005Z,15.26
2017-10-11T18:32:32.390Z,15.20
2017-10-11T18:35:29.260Z,15.15
2017-10-11T18:54:35.902Z,14.29
2017-10-11T19:13:43.986Z,13.98
2017-10-11T19:33:17.597Z,13.50
2017-10-11T19:35:43.343Z,13.39
2017-10-11T19:38:32.778Z,13.40
2017-10-11T19:57:41.779Z,13.09
2017-10-11T20:17:13.758Z,13.07
2017-10-11T20:36:21.896Z,13.50
2017-10-11T20:39:18.703Z,13.41
2017-10-11T20:41:44.459Z,13.34
2017-10-11T20:44:33.223Z,13.28
2017-10-11T21:03:43.062Z,12.70
2017-10-11T21:06:32.439Z,12.71
2017-10-11T21:09:28.974Z,12.60
2017-10-11T21:12:26.470Z,12.59
2017-10-11T21:15:23.042Z,12.54
2017-10-11T21:25:11.039Z,12.41
2017-10-11T21:27:59.894Z,12.38
2017-10-11T21:47:07.678Z,12.36
2017-10-11T21:49:56.911Z,12.32
2017-10-11T21:52:54.218Z,12.28
2017-10-11T21:55:51.016Z,12.29
2017-10-11T21:58:48.031Z,12.34
2017-10-11T22:01:44.815Z,12.56
2017-10-11T22:20:52.691Z,12.50
2017-10-11T22:23:49.432Z,12.46
2017-10-11T22:32:56.399Z,12.30
2017-10-11T22:35:45.354Z,12.35
2017-10-11T22:38:42.024Z,12.35
2017-10-11T22:41:38.703Z,12.38
2017-10-11T22:54:23.041Z,12.06
2017-10-11T22:57:12.367Z,12.01
2017-10-11T23:16:21.078Z,12.19
2017-10-11T23:35:52.858Z,12.22
2017-10-11T23:38:18.643Z,12.35
2017-10-11T23:57:50.795Z,12.65
